4XCWZ LLHZ-LLHZ

Flight info

Callsign 4XCWZ
Flight time 0h 15m
Altitude 1000
Route CIRCUITS
Aircraft C172/L-VGD/C

Departure

Time 2026-04-18 13:31
Airport Herzliya Airport (LLHZ)

Arrival

Time 2026-04-18 13:46
Airport Herzliya Airport (LLHZ)
Time Latitude Longitude Altitude Speed Heading
2026-04-18 13:31 32.19484 34.83299 725 ft 73 kts 66°
2026-04-18 13:31 32.19419 34.83837 828 ft 70 kts 130°
2026-04-18 13:31 32.19119 34.84375 867 ft 82 kts 128°
2026-04-18 13:31 32.18780 34.84979 746 ft 92 kts 133°
2026-04-18 13:32 32.18311 34.85349 567 ft 80 kts 185°
2026-04-18 13:32 32.17858 34.85194 505 ft 58 kts 223°
2026-04-18 13:32 32.17712 34.84767 407 ft 59 kts 256°
2026-04-18 13:32 32.17801 34.84265 283 ft 67 kts 282°
2026-04-18 13:33 32.17955 34.83719 122 ft 67 kts 286°
2026-04-18 13:33 32.18105 34.83224 204 ft 63 kts 283°
2026-04-18 13:33 32.18362 34.82829 307 ft 68 kts 347°
2026-04-18 13:33 32.18838 34.82844 428 ft 71 kts 353°
2026-04-18 13:34 32.19323 34.82923 604 ft 68 kts 13°
2026-04-18 13:34 32.19684 34.83292 726 ft 69 kts 83°
2026-04-18 13:34 32.19563 34.83876 760 ft 82 kts 129°
2026-04-18 13:34 32.19212 34.84477 770 ft 92 kts 129°
2026-04-18 13:35 32.18832 34.85089 690 ft 94 kts 136°
2026-04-18 13:35 32.18300 34.85360 544 ft 75 kts 187°
2026-04-18 13:35 32.17862 34.85234 456 ft 58 kts 211°
2026-04-18 13:35 32.17644 34.84833 365 ft 60 kts 250°
2026-04-18 13:36 32.17775 34.84345 279 ft 66 kts 279°
2026-04-18 13:36 32.17926 34.83817 148 ft 68 kts 287°
2026-04-18 13:36 32.18070 34.83326 188 ft 60 kts 276°
2026-04-18 13:36 32.18190 34.82836 323 ft 64 kts 276°
2026-04-18 13:37 32.18611 34.82774 465 ft 69 kts 358°
2026-04-18 13:37 32.19111 34.82874 582 ft 77 kts 11°
2026-04-18 13:37 32.19541 34.83183 738 ft 71 kts 70°
2026-04-18 13:37 32.19437 34.83738 797 ft 77 kts 128°
2026-04-18 13:38 32.19177 34.84336 835 ft 83 kts 124°
2026-04-18 13:38 32.18907 34.84911 792 ft 79 kts 130°
2026-04-18 13:38 32.18544 34.85384 626 ft 73 kts 166°
2026-04-18 13:38 32.18090 34.85298 492 ft 61 kts 192°
2026-04-18 13:39 32.17757 34.85117 414 ft 51 kts 233°
2026-04-18 13:39 32.17637 34.84744 350 ft 57 kts 281°
2026-04-18 13:39 32.17789 34.84278 266 ft 62 kts 281°
2026-04-18 13:39 32.17936 34.83777 130 ft 65 kts 284°
2026-04-18 13:40 32.18074 34.83287 208 ft 63 kts 276°
2026-04-18 13:40 32.18171 34.82799 358 ft 64 kts 288°
2026-04-18 13:40 32.18626 34.82755 516 ft 67 kts 358°
2026-04-18 13:40 32.19115 34.82843 641 ft 72 kts
2026-04-18 13:41 32.19457 34.83215 768 ft 71 kts 85°
2026-04-18 13:41 32.19339 34.83793 808 ft 79 kts 126°
2026-04-18 13:41 32.19048 34.84387 881 ft 84 kts 127°
2026-04-18 13:41 32.18736 34.84988 730 ft 89 kts 132°
2026-04-18 13:42 32.18332 34.85317 569 ft 63 kts 185°
2026-04-18 13:42 32.17960 34.85252 463 ft 50 kts 191°
2026-04-18 13:42 32.17701 34.85024 396 ft 53 kts 253°
2026-04-18 13:42 32.17717 34.84581 327 ft 58 kts 266°
2026-04-18 13:43 32.17843 34.84078 223 ft 68 kts 279°
2026-04-18 13:43 32.17998 34.83567 113 ft 61 kts 287°
2026-04-18 13:43 32.18119 34.83073 238 ft 65 kts 273°
2026-04-18 13:43 32.18381 34.82724 402 ft 70 kts
2026-04-18 13:44 32.18888 34.82885 523 ft 77 kts 12°
2026-04-18 13:44 32.19291 34.83261 675 ft 73 kts 79°
2026-04-18 13:44 32.19157 34.83812 767 ft 75 kts 129°
2026-04-18 13:44 32.18940 34.84412 820 ft 84 kts 113°
2026-04-18 13:45 32.18716 34.85064 707 ft 85 kts 123°
2026-04-18 13:45 32.18293 34.85397 581 ft 70 kts 186°
2026-04-18 13:45 32.17865 34.85297 554 ft 57 kts 197°
2026-04-18 13:45 32.17619 34.84971 493 ft 58 kts 257°
2026-04-18 13:46 32.17728 34.84460 366 ft 69 kts 278°
2026-04-18 13:46 32.17900 34.83902 151 ft 69 kts 285°
2026-04-18 13:46 32.18018 34.83504 112 ft 30 kts 291°
2026-04-18 13:46 32.18058 34.83338 106 ft 7 kts 222°
2026-04-18 13:47 32.18041 34.83331 106 ft 0 kts 178°
2026-04-18 13:47 32.18029 34.83342 106 ft 7 kts 108°
2026-04-18 13:47 32.18005 34.83429 109 ft 13 kts 110°
2026-04-18 13:47 32.17973 34.83537 113 ft 15 kts 110°
2026-04-18 13:48 32.17944 34.83600 114 ft 3 kts 183°
2026-04-18 13:48 32.17938 34.83598 114 ft 0 kts 219°